Terminal Aerodrome Forecast
Issued by NWS

Home | Current Version | Previous Version | Text Only | Print | Product List | Glossary On
Versions: 1 2 3 4 5 6 7 8 9 10 11 12 13 14 15 16 17 18 19 20 21 22 23 24 25 26 27 28 29 30
000
FTPA31 PHFO 201121
TAFHLI
TAF
PHLI 201121Z 2012/2112 17007KT P6SM VCSH FEW010 SCT025 BKN060
      TEMPO 2012/2016 4SM SHRA BKN020 OVC050
     FM202000 19009KT P6SM VCSH SCT025 BKN060
     AMD NOT SKED=

USA.gov is the U.S. government's official web portal to all federal, state and local government web resources and services.